Time;durP1;ratioP1;P1;durP2;ratioP2;P2;SDS_P1;SDS_P2;PMS_P1;PMS_P2;Temp;Humidity;BMP_temperature;BMP_pressure;BME280_temperature;BME280_humidity;BME280_pressure;Samples;Min_cycle;Max_cycle;Signal;HPM_P1;HPM_P2
2022/02/16 00:02:08;;;;;;;4.25;3.85;;;9.50;88.40;;;;;;5022730;28;20021;-73
2022/02/16 00:04:35;;;;;;;4.18;3.75;;;9.50;88.50;;;;;;5020383;28;20098;-74
2022/02/16 00:07:00;;;;;;;5.80;4.80;;;9.50;88.60;;;;;;5015658;28;20033;-74
2022/02/16 00:09:26;;;;;;;4.63;3.70;;;9.50;88.60;;;;;;5011459;28;20496;-73
2022/02/16 00:11:51;;;;;;;3.90;3.35;;;9.50;88.50;;;;;;5010834;28;20160;-74
2022/02/16 00:14:17;;;;;;;2.90;2.70;;;9.50;88.50;;;;;;5008740;28;20033;-74
2022/02/16 00:16:42;;;;;;;4.45;4.05;;;9.60;88.40;;;;;;5014684;28;20404;-74
2022/02/16 00:19:08;;;;;;;3.65;2.78;;;9.60;88.40;;;;;;5005739;28;20112;-74
2022/02/16 00:21:33;;;;;;;3.90;3.50;;;9.60;88.40;;;;;;5010593;28;20022;-74
2022/02/16 00:23:59;;;;;;;4.38;3.97;;;9.60;88.50;;;;;;5006431;28;20033;-75
2022/02/16 00:26:24;;;;;;;3.13;2.70;;;9.60;88.60;;;;;;5005500;28;20026;-75
2022/02/16 00:28:50;;;;;;;3.00;2.70;;;9.60;88.50;;;;;;5010986;28;20080;-75
2022/02/16 00:31:16;;;;;;;3.42;3.10;;;9.60;88.50;;;;;;5014961;28;20168;-75
2022/02/16 00:33:41;;;;;;;4.22;3.80;;;9.60;88.40;;;;;;5010520;28;20022;-75
2022/02/16 00:36:07;;;;;;;3.65;3.30;;;9.60;88.40;;;;;;5009906;28;20040;-75
2022/02/16 00:38:32;;;;;;;3.20;2.90;;;9.60;88.60;;;;;;5008178;28;20025;-75
2022/02/16 00:40:58;;;;;;;2.97;2.63;;;9.60;88.60;;;;;;5010203;28;20018;-75
2022/02/16 00:43:23;;;;;;;3.08;2.78;;;9.60;88.50;;;;;;5011693;28;20551;-75
2022/02/16 00:45:49;;;;;;;3.78;3.40;;;9.60;88.40;;;;;;5010471;28;20024;-75
2022/02/16 00:48:15;;;;;;;4.30;3.90;;;9.70;88.30;;;;;;5009743;28;20119;-75
2022/02/16 00:50:41;;;;;;;3.20;2.90;;;9.70;88.40;;;;;;5009942;28;20084;-75
2022/02/16 00:53:06;;;;;;;3.17;2.67;;;9.70;88.40;;;;;;5004639;28;20206;-75
2022/02/16 00:55:32;;;;;;;2.97;2.78;;;9.70;88.40;;;;;;5010685;28;20569;-75
2022/02/16 00:57:57;;;;;;;2.50;2.30;;;9.70;88.20;;;;;;5003190;28;20026;-75
2022/02/16 01:00:23;;;;;;;3.33;3.03;;;9.70;88.20;;;;;;5010000;28;20052;-75
2022/02/16 01:02:49;;;;;;;3.28;2.97;;;9.80;88.10;;;;;;5006692;28;20033;-76
2022/02/16 01:05:14;;;;;;;4.05;3.60;;;9.80;88.10;;;;;;5005345;28;20024;-75
2022/02/16 01:07:40;;;;;;;3.22;2.92;;;9.80;88.10;;;;;;5006427;28;20030;-75
2022/02/16 01:10:06;;;;;;;5.82;4.50;;;9.80;88.10;;;;;;5010819;28;20014;-74
2022/02/16 01:12:32;;;;;;;3.92;3.53;;;9.80;88.10;;;;;;5011711;28;20064;-75
2022/02/16 01:14:58;;;;;;;4.85;4.25;;;9.70;88.10;;;;;;5005432;28;20018;-75
2022/02/16 01:17:24;;;;;;;8.10;6.47;;;9.70;88.20;;;;;;5011052;28;20026;-74
2022/02/16 01:19:49;;;;;;;5.88;5.00;;;9.70;88.30;;;;;;5005511;28;20026;-75
2022/02/16 01:22:15;;;;;;;6.20;4.90;;;9.70;88.40;;;;;;5011669;28;20077;-75
2022/02/16 01:24:40;;;;;;;6.88;4.82;;;9.70;88.40;;;;;;5000570;28;20054;-74
2022/02/16 01:27:06;;;;;;;4.90;4.32;;;9.70;88.40;;;;;;5006127;28;20033;-75
2022/02/16 01:29:32;;;;;;;7.72;6.90;;;9.80;88.40;;;;;;5010249;28;20372;-75
2022/02/16 01:31:58;;;;;;;8.05;6.93;;;9.70;88.60;;;;;;5004807;28;20029;-76
2022/02/16 01:34:24;;;;;;;9.35;7.30;;;9.70;88.60;;;;;;5009663;28;20022;-76
2022/02/16 01:36:49;;;;;;;6.90;4.97;;;9.70;88.70;;;;;;5003362;28;20030;-76
2022/02/16 01:39:15;;;;;;;5.82;5.00;;;9.70;88.80;;;;;;5010092;28;20029;-75
2022/02/16 01:41:41;;;;;;;8.02;6.70;;;9.70;88.80;;;;;;5004217;28;20535;-75
2022/02/16 01:44:06;;;;;;;8.38;7.40;;;9.70;88.90;;;;;;5009618;28;20184;-76
2022/02/16 01:46:46;;;;;;;9.13;6.50;;;9.70;89.10;;;;;;5009728;28;20018;-75
2022/02/16 01:49:12;;;;;;;6.97;6.22;;;9.70;89.20;;;;;;5017003;28;20108;-76
2022/02/16 01:51:37;;;;;;;6.68;5.47;;;9.70;89.30;;;;;;5004007;28;20149;-77
2022/02/16 01:54:03;;;;;;;7.90;5.53;;;9.70;89.30;;;;;;5005372;28;20026;-75
2022/02/16 01:56:28;;;;;;;7.35;5.35;;;9.80;89.20;;;;;;5007664;28;20401;-76
2022/02/16 01:58:54;;;;;;;5.75;5.10;;;9.70;89.20;;;;;;5003987;28;20468;-75
2022/02/16 02:01:19;;;;;;;5.63;4.10;;;9.70;89.20;;;;;;5004589;28;20026;-75
2022/02/16 02:03:45;;;;;;;6.88;6.18;;;9.70;89.20;;;;;;5004993;28;20534;-75
2022/02/16 02:06:10;;;;;;;8.68;7.20;;;9.80;89.30;;;;;;5018495;28;20072;-75
2022/02/16 02:08:36;;;;;;;9.82;6.57;;;9.70;89.40;;;;;;5005309;28;20030;-75
2022/02/16 02:11:02;;;;;;;6.18;5.43;;;9.80;89.40;;;;;;5009925;28;20101;-76
2022/02/16 02:13:28;;;;;;;6.93;5.97;;;9.80;89.40;;;;;;5007307;28;20022;-76
2022/02/16 02:15:53;;;;;;;6.75;5.60;;;9.80;89.40;;;;;;5008761;28;20030;-76
2022/02/16 02:18:20;;;;;;;7.88;6.05;;;9.80;89.40;;;;;;5007769;28;20032;-76
2022/02/16 02:20:46;;;;;;;6.97;5.32;;;9.80;89.50;;;;;;5001905;28;20030;-76
2022/02/16 02:23:12;;;;;;;9.65;8.48;;;9.80;89.50;;;;;;5009664;28;20128;-76
2022/02/16 02:25:49;;;;;;;6.88;5.53;;;9.80;89.60;;;;;;5004232;28;20018;-76
2022/02/16 02:28:16;;;;;;;6.22;5.22;;;9.80;89.80;;;;;;5002392;28;20049;-75
2022/02/16 02:30:41;;;;;;;7.82;6.75;;;9.80;89.70;;;;;;5004361;28;20515;-76
2022/02/16 02:33:07;;;;;;;10.43;8.25;;;9.80;89.80;;;;;;5010458;28;20029;-76
2022/02/16 02:35:33;;;;;;;10.25;6.45;;;9.80;90.20;;;;;;5003644;28;20104;-76
2022/02/16 02:37:58;;;;;;;6.50;5.47;;;9.70;90.00;;;;;;5003579;28;20087;-77
2022/02/16 02:40:24;;;;;;;6.43;5.25;;;9.70;90.00;;;;;;5010004;28;20026;-77
2022/02/16 02:42:50;;;;;;;6.32;4.95;;;9.80;90.00;;;;;;5003286;28;20069;-77
2022/02/16 02:45:15;;;;;;;6.10;4.50;;;9.80;90.00;;;;;;5009406;28;20022;-77
2022/02/16 02:47:41;;;;;;;8.23;6.90;;;9.80;90.00;;;;;;5005765;28;20034;-77
2022/02/16 02:50:08;;;;;;;6.68;5.13;;;9.80;90.00;;;;;;5007264;28;20025;-77
2022/02/16 02:52:36;;;;;;;5.00;4.22;;;9.80;90.00;;;;;;5005091;28;20033;-75
2022/02/16 02:55:03;;;;;;;5.65;4.68;;;9.80;90.00;;;;;;5006472;28;20022;-75
2022/02/16 02:57:28;;;;;;;7.20;5.03;;;9.80;90.00;;;;;;5008622;28;20032;-75
2022/02/16 02:59:54;;;;;;;6.60;5.10;;;9.80;90.00;;;;;;5016214;28;20038;-75
2022/02/16 03:02:19;;;;;;;5.97;4.05;;;9.80;89.90;;;;;;5004977;28;20041;-76
2022/02/16 03:04:45;;;;;;;6.90;5.70;;;9.90;90.00;;;;;;5003235;28;20384;-75
2022/02/16 03:07:10;;;;;;;5.07;4.30;;;9.90;90.00;;;;;;5001934;28;20385;-76
2022/02/16 03:09:36;;;;;;;3.70;3.30;;;9.80;90.00;;;;;;5003247;28;20169;-76
2022/02/16 03:12:02;;;;;;;5.55;4.07;;;9.90;89.90;;;;;;5007053;28;20682;-76
2022/02/16 03:14:28;;;;;;;9.40;6.05;;;9.90;89.80;;;;;;5005517;28;20034;-76
2022/02/16 03:16:54;;;;;;;5.53;4.32;;;9.90;89.80;;;;;;5009307;28;20052;-76
2022/02/16 03:19:19;;;;;;;6.80;4.50;;;9.90;89.80;;;;;;4997699;28;20485;-76
2022/02/16 03:21:45;;;;;;;7.53;5.13;;;9.90;89.90;;;;;;5006509;28;20037;-75
2022/02/16 03:24:10;;;;;;;5.20;3.88;;;9.80;89.90;;;;;;5007430;28;20100;-76
2022/02/16 03:26:36;;;;;;;5.30;4.25;;;9.90;90.00;;;;;;5007348;28;20096;-75
2022/02/16 03:29:02;;;;;;;3.53;3.13;;;9.80;90.00;;;;;;5009044;28;20055;-74
2022/02/16 03:31:28;;;;;;;5.35;4.85;;;9.90;90.00;;;;;;5006104;28;20041;-74
2022/02/16 03:33:53;;;;;;;7.18;4.97;;;9.90;90.00;;;;;;5012232;28;20022;-75
2022/02/16 03:36:19;;;;;;;4.65;3.83;;;9.80;90.00;;;;;;5014223;28;20492;-74
2022/02/16 03:38:44;;;;;;;4.85;4.05;;;9.80;90.10;;;;;;5013466;28;20025;-76
2022/02/16 03:41:10;;;;;;;4.90;3.95;;;9.90;90.10;;;;;;5008327;28;20469;-74
2022/02/16 03:43:35;;;;;;;7.03;5.68;;;9.90;90.00;;;;;;5012330;28;20038;-75
2022/02/16 03:46:01;;;;;;;3.78;3.42;;;9.80;90.10;;;;;;5009599;28;20449;-74
2022/02/16 03:48:26;;;;;;;5.70;4.85;;;9.80;90.10;;;;;;5010952;28;20061;-74
2022/02/16 03:50:52;;;;;;;5.53;4.97;;;9.80;90.10;;;;;;5011755;28;20042;-75
2022/02/16 03:53:19;;;;;;;5.15;4.43;;;9.80;90.10;;;;;;5011826;28;20500;-75
2022/02/16 03:55:44;;;;;;;6.85;5.22;;;9.80;90.10;;;;;;5008140;28;20026;-75
2022/02/16 03:58:10;;;;;;;5.35;3.60;;;9.90;90.10;;;;;;5005443;28;20495;-75
2022/02/16 04:00:36;;;;;;;5.22;3.95;;;9.80;90.10;;;;;;5009550;28;20022;-74
2022/02/16 04:03:08;;;;;;;7.18;5.35;;;9.80;90.00;;;;;;5009386;28;20045;-74
2022/02/16 04:05:34;;;;;;;5.63;4.00;;;9.80;90.10;;;;;;5012686;28;20022;-74
2022/02/16 04:08:00;;;;;;;6.05;4.05;;;9.80;90.10;;;;;;5008227;28;20069;-75
2022/02/16 04:10:25;;;;;;;4.35;3.60;;;9.80;90.10;;;;;;5011499;28;20499;-74
2022/02/16 04:12:51;;;;;;;4.55;3.42;;;9.80;90.10;;;;;;5011262;28;20080;-75
2022/02/16 04:15:16;;;;;;;5.97;4.47;;;9.80;90.10;;;;;;5010958;28;20033;-74
2022/02/16 04:17:42;;;;;;;3.90;3.40;;;9.80;90.00;;;;;;5010969;28;20030;-74
2022/02/16 04:20:11;;;;;;;5.07;3.47;;;9.90;90.00;;;;;;5005702;28;20376;-74
2022/02/16 04:22:41;;;;;;;4.13;3.72;;;9.80;90.00;;;;;;5012844;28;20038;-75
2022/02/16 04:25:07;;;;;;;4.03;3.63;;;9.80;90.10;;;;;;5008595;28;20026;-74
2022/02/16 04:27:33;;;;;;;5.82;4.32;;;9.80;90.10;;;;;;5012147;28;20500;-74
2022/02/16 04:29:58;;;;;;;4.97;3.97;;;9.80;90.10;;;;;;5008696;28;20026;-74
2022/02/16 04:32:24;;;;;;;5.97;5.30;;;9.80;90.20;;;;;;5012615;28;20034;-75
2022/02/16 04:34:49;;;;;;;5.45;3.75;;;9.70;90.30;;;;;;5011713;28;20049;-74
2022/02/16 04:37:15;;;;;;;4.00;3.60;;;9.70;90.40;;;;;;5006915;28;20030;-75
2022/02/16 04:39:40;;;;;;;3.85;3.45;;;9.70;90.40;;;;;;5011780;28;20495;-74
2022/02/16 04:42:06;;;;;;;4.63;3.53;;;9.70;90.40;;;;;;5003797;28;20033;-74
2022/02/16 04:44:32;;;;;;;3.72;3.03;;;9.70;90.40;;;;;;5011933;28;20030;-75
2022/02/16 04:46:57;;;;;;;4.18;3.75;;;9.70;90.50;;;;;;5003360;28;20026;-75
2022/02/16 04:49:23;;;;;;;4.05;3.65;;;9.70;90.40;;;;;;5006182;28;20021;-75
2022/02/16 04:51:48;;;;;;;6.00;4.45;;;9.70;90.50;;;;;;5021416;28;20967;-75
2022/02/16 04:54:14;;;;;;;5.45;3.95;;;9.70;90.50;;;;;;5012779;28;20106;-75
2022/02/16 04:56:39;;;;;;;6.07;5.32;;;9.70;90.50;;;;;;5010602;28;20026;-74
2022/02/16 04:59:05;;;;;;;8.05;6.38;;;9.70;90.60;;;;;;5006516;28;20046;-75
2022/02/16 05:01:30;;;;;;;4.43;4.03;;;9.70;90.70;;;;;;5002649;28;20069;-75
2022/02/16 05:03:56;;;;;;;4.50;3.53;;;9.70;90.70;;;;;;5004392;28;20132;-74
2022/02/16 05:06:23;;;;;;;6.20;5.50;;;9.70;90.70;;;;;;5010227;28;20026;-75
2022/02/16 05:08:48;;;;;;;4.85;4.00;;;9.70;90.70;;;;;;5000143;28;20041;-75
2022/02/16 05:11:14;;;;;;;4.93;3.60;;;9.80;90.80;;;;;;5005174;28;20393;-76
2022/02/16 05:13:40;;;;;;;5.60;3.70;;;9.80;90.70;;;;;;5007149;28;20042;-76
2022/02/16 05:16:05;;;;;;;6.05;5.43;;;9.80;90.70;;;;;;5010616;28;20034;-75
2022/02/16 05:18:33;;;;;;;5.63;5.03;;;9.80;90.70;;;;;;5011239;28;20026;-75
2022/02/16 05:20:59;;;;;;;5.40;4.65;;;9.80;90.60;;;;;;5008032;28;20018;-75
2022/02/16 05:23:24;;;;;;;4.53;3.67;;;9.80;90.70;;;;;;5011274;28;20544;-75
2022/02/16 05:25:50;;;;;;;6.43;4.97;;;9.90;90.70;;;;;;5008284;28;20109;-75
2022/02/16 05:28:15;;;;;;;6.68;4.97;;;9.90;90.70;;;;;;5006889;28;20029;-75
2022/02/16 05:30:41;;;;;;;5.50;4.18;;;9.90;90.70;;;;;;5007027;28;20022;-74
2022/02/16 05:33:06;;;;;;;4.68;3.85;;;9.80;90.70;;;;;;5010185;28;20073;-74
2022/02/16 05:35:32;;;;;;;4.90;4.40;;;9.80;90.80;;;;;;5010153;28;20453;-74
2022/02/16 05:37:57;;;;;;;4.63;3.65;;;9.80;90.80;;;;;;5007375;28;20033;-75
2022/02/16 05:40:23;;;;;;;3.67;3.30;;;9.90;90.80;;;;;;5010084;28;20018;-75
2022/02/16 05:42:48;;;;;;;4.80;4.40;;;9.90;90.80;;;;;;5007165;28;20546;-74
2022/02/16 05:45:15;;;;;;;5.53;4.85;;;9.90;91.10;;;;;;5009235;28;20014;-74
2022/02/16 05:47:40;;;;;;;4.43;4.00;;;9.90;90.80;;;;;;5005866;28;20022;-74
2022/02/16 05:50:06;;;;;;;3.95;3.55;;;9.80;91.00;;;;;;5008760;28;20064;-74
2022/02/16 05:52:32;;;;;;;4.00;3.05;;;9.90;91.00;;;;;;5004801;28;20068;-75
2022/02/16 05:54:57;;;;;;;4.68;4.18;;;9.90;90.90;;;;;;5006059;28;20469;-74
2022/02/16 05:57:23;;;;;;;4.20;3.80;;;9.90;90.90;;;;;;5007601;28;20033;-75
2022/02/16 05:59:48;;;;;;;3.70;3.40;;;9.90;91.00;;;;;;5005892;28;20040;-75
2022/02/16 06:02:14;;;;;;;3.85;3.45;;;9.90;91.00;;;;;;5005486;28;20373;-75
2022/02/16 06:04:41;;;;;;;4.47;3.90;;;9.90;90.90;;;;;;5007838;28;20034;-73
2022/02/16 06:07:07;;;;;;;4.40;4.00;;;9.90;91.00;;;;;;5005602;28;20025;-74
2022/02/16 06:09:32;;;;;;;3.55;3.25;;;9.90;91.00;;;;;;5012435;28;20487;-74
2022/02/16 06:11:58;;;;;;;3.40;3.10;;;9.90;91.00;;;;;;5004594;28;20021;-75
2022/02/16 06:14:24;;;;;;;3.05;2.80;;;9.90;91.10;;;;;;5007574;28;20108;-74
2022/02/16 06:16:49;;;;;;;5.95;5.15;;;9.90;91.10;;;;;;5003779;28;20473;-74
2022/02/16 06:19:15;;;;;;;3.38;3.08;;;10.00;91.10;;;;;;5008208;28;20377;-74
2022/02/16 06:21:41;;;;;;;3.30;3.00;;;9.90;91.20;;;;;;5006821;28;20060;-74
2022/02/16 06:24:07;;;;;;;4.68;4.28;;;9.90;91.20;;;;;;5012230;28;20061;-74
2022/02/16 06:26:33;;;;;;;4.13;3.80;;;10.00;91.20;;;;;;5006150;28;20408;-75
2022/02/16 06:28:58;;;;;;;2.97;2.78;;;9.90;91.20;;;;;;5002119;28;20030;-74
2022/02/16 06:31:24;;;;;;;5.32;4.90;;;10.00;91.20;;;;;;5007011;28;20022;-75
2022/02/16 06:33:49;;;;;;;3.58;3.28;;;10.00;91.20;;;;;;5001319;28;20037;-74
2022/02/16 06:36:15;;;;;;;5.13;4.50;;;10.00;91.20;;;;;;5004651;28;20022;-74
2022/02/16 06:38:40;;;;;;;5.00;4.22;;;10.00;91.20;;;;;;5008193;28;20026;-74
2022/02/16 06:41:06;;;;;;;3.40;3.10;;;10.00;91.20;;;;;;5006685;28;20850;-74
2022/02/16 06:43:31;;;;;;;3.90;3.60;;;10.00;91.20;;;;;;5011484;28;20068;-74
2022/02/16 06:45:57;;;;;;;3.30;3.00;;;10.00;91.20;;;;;;5017193;28;20113;-73
2022/02/16 06:48:23;;;;;;;6.90;3.47;;;10.00;91.20;;;;;;5011721;28;20033;-81
2022/02/16 06:50:48;;;;;;;3.25;2.95;;;10.10;91.30;;;;;;5020090;28;20419;-74
2022/02/16 06:53:14;;;;;;;3.10;2.90;;;10.10;91.30;;;;;;5014536;28;20032;-75
2022/02/16 06:55:39;;;;;;;2.58;2.38;;;10.10;91.20;;;;;;5012135;28;20040;-74
2022/02/16 06:58:05;;;;;;;2.60;2.40;;;10.10;91.20;;;;;;5005792;28;20021;-74
2022/02/16 07:00:30;;;;;;;2.40;2.20;;;10.10;91.20;;;;;;5021603;28;20040;-74
2022/02/16 07:02:56;;;;;;;3.35;2.70;;;10.10;91.20;;;;;;5017193;28;20074;-75
2022/02/16 07:05:22;;;;;;;3.85;3.45;;;10.10;91.20;;;;;;5023111;28;20037;-76
2022/02/16 07:07:47;;;;;;;3.58;3.03;;;10.20;91.20;;;;;;5011043;28;20480;-74
2022/02/16 07:10:13;;;;;;;2.58;2.38;;;10.20;91.30;;;;;;5014078;28;20028;-74
2022/02/16 07:12:39;;;;;;;2.70;2.28;;;10.20;91.20;;;;;;5017142;28;20574;-74
2022/02/16 07:15:11;;;;;;;2.83;2.63;;;10.30;91.20;;;;;;5018585;28;20026;-74
2022/02/16 07:17:39;;;;;;;3.07;2.83;;;10.30;91.20;;;;;;5008401;28;20042;-73
2022/02/16 07:20:09;;;;;;;4.07;3.35;;;10.30;91.50;;;;;;5025558;28;20045;-76
2022/02/16 07:23:03;;;;;;;2.75;2.55;;;10.30;91.20;;;;;;5007792;28;20065;-75
2022/02/16 07:25:28;;;;;;;3.35;2.63;;;10.30;91.50;;;;;;5008270;28;20452;-75
2022/02/16 07:27:54;;;;;;;2.38;2.17;;;10.30;91.20;;;;;;5019710;28;20112;-76
2022/02/16 07:30:19;;;;;;;1.88;1.73;;;10.30;91.20;;;;;;5013610;28;20065;-75
2022/02/16 07:32:45;;;;;;;2.33;2.13;;;10.40;91.20;;;;;;5006074;28;20018;-77
2022/02/16 07:35:12;;;;;;;2.10;2.00;;;10.40;91.10;;;;;;5002073;28;20034;-76
2022/02/16 07:37:38;;;;;;;1.80;1.70;;;10.40;91.10;;;;;;5005744;28;20026;-76
2022/02/16 07:40:05;;;;;;;1.73;1.63;;;10.40;91.10;;;;;;5010177;28;20550;-77
2022/02/16 07:42:31;;;;;;;2.63;2.42;;;10.40;91.30;;;;;;5010387;28;20029;-76
2022/02/16 07:44:57;;;;;;;2.60;2.40;;;10.50;91.10;;;;;;5011784;28;20076;-77
2022/02/16 07:47:23;;;;;;;2.00;1.90;;;10.40;91.10;;;;;;5020894;28;20195;-76
2022/02/16 07:49:49;;;;;;;2.03;1.88;;;10.50;91.20;;;;;;5010908;28;20029;-77
2022/02/16 07:52:14;;;;;;;2.20;2.00;;;10.50;91.20;;;;;;5017399;28;20030;-78
2022/02/16 07:54:41;;;;;;;2.47;1.90;;;10.50;91.20;;;;;;5021656;28;20029;-78
2022/02/16 07:57:07;;;;;;;2.05;1.95;;;10.50;91.20;;;;;;5010072;28;20037;-77
2022/02/16 07:59:32;;;;;;;1.77;1.67;;;10.50;91.20;;;;;;5021033;28;20029;-77
2022/02/16 08:01:58;;;;;;;2.00;1.90;;;10.50;91.50;;;;;;5007748;28;20026;-74
2022/02/16 08:04:25;;;;;;;2.60;2.40;;;10.60;91.30;;;;;;5008931;28;20026;-74
2022/02/16 08:06:51;;;;;;;2.20;2.00;;;10.60;91.40;;;;;;5018558;28;20053;-74
2022/02/16 08:09:17;;;;;;;2.90;2.50;;;10.60;91.40;;;;;;5012389;28;20061;-74
2022/02/16 08:11:45;;;;;;;2.50;2.30;;;10.60;91.40;;;;;;5010189;28;20133;-76
2022/02/16 08:14:12;;;;;;;2.40;2.20;;;10.70;91.40;;;;;;5015328;28;20040;-74
2022/02/16 08:16:38;;;;;;;2.50;2.30;;;10.70;91.40;;;;;;5008707;28;20080;-75
2022/02/16 08:19:05;;;;;;;2.70;2.50;;;10.70;91.40;;;;;;5019916;28;20616;-75
2022/02/16 08:21:31;;;;;;;3.00;2.20;;;10.70;91.40;;;;;;5010558;28;20105;-75
2022/02/16 08:23:57;;;;;;;2.55;2.35;;;10.80;91.40;;;;;;5002628;28;20578;-75
2022/02/16 08:26:23;;;;;;;2.90;2.60;;;10.80;91.40;;;;;;5001889;28;20092;-74
2022/02/16 08:28:48;;;;;;;2.67;2.47;;;10.80;91.40;;;;;;5008750;28;20033;-76
2022/02/16 08:31:14;;;;;;;2.33;2.13;;;10.80;91.40;;;;;;5010728;28;20100;-75
2022/02/16 08:33:39;;;;;;;3.03;2.50;;;10.90;91.40;;;;;;5011585;28;20129;-76
2022/02/16 08:36:06;;;;;;;2.97;2.65;;;10.90;91.40;;;;;;5010946;28;20033;-76
2022/02/16 08:38:32;;;;;;;3.08;2.78;;;11.00;91.40;;;;;;5011860;28;20069;-76
2022/02/16 08:40:57;;;;;;;3.13;2.50;;;11.00;91.50;;;;;;5016490;28;20467;-77
2022/02/16 08:43:23;;;;;;;2.60;2.40;;;11.00;91.40;;;;;;5016392;28;20037;-77
2022/02/16 08:45:49;;;;;;;2.60;2.40;;;11.10;91.50;;;;;;5022112;28;20022;-77
2022/02/16 08:48:15;;;;;;;3.08;2.80;;;11.10;91.40;;;;;;5008979;28;20481;-79
2022/02/16 08:50:40;;;;;;;2.45;2.25;;;11.10;91.40;;;;;;5008621;28;20026;-77
2022/02/16 08:53:06;;;;;;;3.00;2.67;;;11.10;91.40;;;;;;5007940;28;20029;-79
2022/02/16 08:55:32;;;;;;;3.08;2.80;;;11.10;91.40;;;;;;5015569;28;20026;-76
2022/02/16 08:57:57;;;;;;;3.20;2.90;;;11.20;91.50;;;;;;5012277;28;20042;-77
2022/02/16 09:00:24;;;;;;;3.25;2.95;;;11.20;91.50;;;;;;5016974;28;20373;-77
2022/02/16 09:02:51;;;;;;;3.30;3.00;;;11.20;91.50;;;;;;5003675;28;20038;-76
2022/02/16 09:05:17;;;;;;;3.65;3.00;;;11.20;91.50;;;;;;5016944;28;20053;-75
2022/02/16 09:07:42;;;;;;;2.80;2.60;;;11.20;91.50;;;;;;5012312;28;20135;-78
2022/02/16 09:10:10;;;;;;;3.90;3.50;;;11.30;91.50;;;;;;5008909;28;20021;-77
2022/02/16 09:12:37;;;;;;;3.20;2.90;;;11.30;91.50;;;;;;5009435;28;20026;-80
2022/02/16 09:15:04;;;;;;;4.13;3.72;;;11.30;91.50;;;;;;5015784;28;20033;-77
2022/02/16 09:17:30;;;;;;;3.00;2.50;;;11.40;91.50;;;;;;5016497;28;20036;-78
2022/02/16 09:19:57;;;;;;;3.85;3.50;;;11.40;91.50;;;;;;5023956;28;20037;-75
2022/02/16 09:22:23;;;;;;;2.92;2.67;;;11.40;91.50;;;;;;5014523;28;20052;-76
2022/02/16 09:24:50;;;;;;;4.03;3.63;;;11.40;91.50;;;;;;5013846;28;20287;-77
2022/02/16 09:27:16;;;;;;;4.00;3.60;;;11.50;91.50;;;;;;5010672;28;20079;-74
2022/02/16 09:29:42;;;;;;;4.47;3.95;;;11.50;91.50;;;;;;5006684;28;20110;-75
2022/02/16 09:32:08;;;;;;;4.28;3.47;;;11.50;91.50;;;;;;5019283;28;20014;-74
2022/02/16 09:34:34;;;;;;;3.10;2.63;;;11.50;91.50;;;;;;5012850;28;20045;-75
2022/02/16 09:37:00;;;;;;;4.25;3.38;;;11.50;91.80;;;;;;5022356;28;20041;-75
2022/02/16 09:39:26;;;;;;;3.80;3.40;;;11.50;91.50;;;;;;5014683;28;20031;-75
2022/02/16 09:41:51;;;;;;;4.25;3.30;;;11.60;91.50;;;;;;5019514;28;20018;-75
2022/02/16 09:44:24;;;;;;;4.57;3.83;;;11.60;91.50;;;;;;5009544;28;20038;-74
2022/02/16 09:46:50;;;;;;;3.10;2.80;;;11.60;91.50;;;;;;5010758;28;20018;-74
2022/02/16 09:49:16;;;;;;;4.03;3.58;;;11.70;91.50;;;;;;5008694;28;20041;-75
2022/02/16 09:51:42;;;;;;;4.20;3.80;;;11.70;91.40;;;;;;5011742;28;20437;-75
2022/02/16 09:54:08;;;;;;;6.40;3.92;;;11.70;91.50;;;;;;5008899;28;20034;-75
2022/02/16 09:56:34;;;;;;;7.15;4.28;;;11.70;91.50;;;;;;5011684;28;20026;-75
2022/02/16 09:59:02;;;;;;;3.88;3.47;;;11.80;91.50;;;;;;5010287;28;20103;-77
2022/02/16 10:01:28;;;;;;;5.68;4.13;;;11.80;91.50;;;;;;5009069;28;20033;-76
2022/02/16 10:04:05;;;;;;;4.68;3.47;;;11.80;91.40;;;;;;5014440;28;20038;-75
2022/02/16 10:06:39;;;;;;;9.25;4.95;;;11.90;91.50;;;;;;5012274;28;20018;-75
2022/02/16 10:09:05;;;;;;;6.22;4.50;;;11.90;91.40;;;;;;5013995;28;20746;-75
2022/02/16 10:11:31;;;;;;;6.40;4.38;;;11.90;91.40;;;;;;5008143;28;20449;-75
2022/02/16 10:14:24;;;;;;;7.90;4.60;;;11.90;91.40;;;;;;5013143;28;20108;-76
2022/02/16 10:16:49;;;;;;;;;;;12.00;91.40;;;;;;5013093;28;20487;-76
2022/02/16 10:19:15;;;;;;;8.82;5.22;;;12.00;91.30;;;;;;5011999;28;19964;-75
2022/02/16 10:21:59;;;;;;;8.77;4.38;;;12.00;91.40;;;;;;5010345;28;20032;-75
2022/02/16 10:24:25;;;;;;;7.85;4.10;;;12.00;91.40;;;;;;5011074;28;20066;-74
2022/02/16 10:26:54;;;;;;;6.13;3.45;;;12.10;91.40;;;;;;5009422;28;20058;-76
2022/02/16 10:29:21;;;;;;;8.27;4.28;;;12.10;91.30;;;;;;5008532;28;20033;-75
2022/02/16 10:31:47;;;;;;;5.20;3.80;;;12.10;91.30;;;;;;5003774;28;20061;-75
2022/02/16 10:34:13;;;;;;;7.95;4.13;;;12.20;91.30;;;;;;5012273;28;20056;-75
2022/02/16 10:36:42;;;;;;;8.15;3.75;;;12.20;91.30;;;;;;5007578;28;20026;-75
2022/02/16 10:39:12;;;;;;;5.72;3.40;;;12.30;91.20;;;;;;5011787;28;20039;-75
2022/02/16 10:41:46;;;;;;;5.18;3.00;;;12.30;91.20;;;;;;5011138;28;20102;-75
2022/02/16 10:44:22;;;;;;;9.55;4.28;;;12.40;91.10;;;;;;5011640;28;20041;-76
2022/02/16 10:47:02;;;;;;;9.13;3.88;;;12.40;91.00;;;;;;5011364;28;20026;-75
2022/02/16 10:49:28;;;;;;;7.00;3.78;;;12.40;91.00;;;;;;5007684;28;20037;-76
2022/02/16 10:52:13;;;;;;;7.40;3.20;;;12.50;91.00;;;;;;5002003;28;20026;-78
2022/02/16 10:54:40;;;;;;;7.47;3.47;;;12.50;90.90;;;;;;5006768;28;20377;-78
2022/02/16 10:57:06;;;;;;;7.43;3.40;;;12.50;90.90;;;;;;5000647;28;20026;-78
2022/02/16 10:59:33;;;;;;;7.35;3.22;;;12.50;90.90;;;;;;4996787;28;20509;-77
2022/02/16 11:02:04;;;;;;;7.32;2.83;;;12.60;90.90;;;;;;5007898;28;20033;-79
2022/02/16 11:04:30;;;;;;;7.30;2.55;;;12.60;90.80;;;;;;5003372;28;20412;-78
2022/02/16 11:06:59;;;;;;;4.40;2.42;;;12.60;90.70;;;;;;5008317;28;20160;-75
2022/02/16 11:09:25;;;;;;;9.15;3.67;;;12.70;90.70;;;;;;5010368;28;20030;-75
2022/02/16 11:11:55;;;;;;;6.25;3.70;;;12.70;90.60;;;;;;5005898;28;20439;-76
2022/02/16 11:14:28;;;;;;;9.52;4.35;;;12.70;90.60;;;;;;5006854;28;20029;-75
2022/02/16 11:16:55;;;;;;;5.63;3.40;;;12.70;90.60;;;;;;5002646;28;20498;-76
2022/02/16 11:19:28;;;;;;;8.40;4.55;;;12.70;90.50;;;;;;5007933;28;20030;-76
2022/02/16 11:22:14;;;;;;;9.60;4.78;;;12.70;90.50;;;;;;5009025;28;20377;-76
2022/02/16 11:24:51;;;;;;;10.23;4.05;;;12.70;90.60;;;;;;5003726;28;20489;-79
2022/02/16 11:27:31;;;;;;;9.75;5.32;;;12.70;90.50;;;;;;5000730;28;20053;-77
2022/02/16 11:30:05;;;;;;;10.38;4.55;;;12.70;90.60;;;;;;5009758;28;20117;-76
2022/02/16 11:32:34;;;;;;;6.03;3.58;;;12.70;90.60;;;;;;5005397;28;20121;-76
2022/02/16 11:35:36;;;;;;;7.47;3.63;;;12.70;90.60;;;;;;5013022;28;20025;-76
2022/02/16 11:38:02;;;;;;;11.02;4.03;;;12.70;90.50;;;;;;5015350;28;20080;-78
2022/02/16 11:40:39;;;;;;;10.55;4.30;;;12.70;90.50;;;;;;5014230;28;20053;-75
2022/02/16 11:43:05;;;;;;;10.32;4.32;;;12.80;90.50;;;;;;5009039;28;20108;-74
2022/02/16 11:45:38;;;;;;;8.68;3.38;;;12.80;90.40;;;;;;5004865;28;20057;-76
2022/02/16 11:48:05;;;;;;;5.78;2.35;;;12.80;90.40;;;;;;5007930;28;20088;-75
2022/02/16 11:50:32;;;;;;;7.68;3.30;;;12.80;90.40;;;;;;5003130;28;20030;-75
2022/02/16 11:52:59;;;;;;;8.73;3.10;;;12.80;90.30;;;;;;5011547;28;20384;-75
2022/02/16 11:55:29;;;;;;;9.43;3.42;;;12.80;90.30;;;;;;5007077;28;20037;-76
2022/02/16 11:58:01;;;;;;;7.75;3.10;;;12.90;90.30;;;;;;5007050;28;20034;-76
2022/02/16 12:00:33;;;;;;;9.80;3.42;;;12.90;90.20;;;;;;4995600;28;20432;-76
2022/02/16 12:03:02;;;;;;;5.30;2.50;;;12.90;90.10;;;;;;5003242;28;20614;-76
2022/02/16 12:05:55;;;;;;;8.77;2.63;;;12.90;90.10;;;;;;5009334;28;20040;-75
2022/02/16 12:08:22;;;;;;;12.55;3.92;;;13.00;90.10;;;;;;5008340;28;20162;-76
2022/02/16 12:11:08;;;;;;;9.85;3.55;;;13.00;90.00;;;;;;5007874;28;20022;-76
2022/02/16 12:13:40;;;;;;;6.97;3.30;;;13.00;89.90;;;;;;5005848;28;20025;-76
2022/02/16 12:16:09;;;;;;;10.30;3.80;;;13.00;89.70;;;;;;5008987;28;20026;-76
2022/02/16 12:18:37;;;;;;;8.27;3.15;;;13.00;89.50;;;;;;5006876;28;20018;-76
2022/02/16 12:21:04;;;;;;;10.45;3.90;;;13.00;89.40;;;;;;5008026;28;20068;-76
2022/02/16 12:23:35;;;;;;;8.32;3.80;;;13.10;89.30;;;;;;5009326;28;20038;-79
2022/02/16 12:26:09;;;;;;;8.20;4.10;;;13.10;89.30;;;;;;5008412;28;20100;-78
2022/02/16 12:28:59;;;;;;;9.65;4.07;;;13.10;88.90;;;;;;5019711;28;20113;-77
2022/02/16 12:31:28;;;;;;;9.57;3.10;;;13.10;88.80;;;;;;5009917;28;20029;-76
2022/02/16 12:33:57;;;;;;;6.80;2.80;;;13.10;88.70;;;;;;5007478;28;20092;-75
2022/02/16 12:36:24;;;;;;;9.07;3.17;;;13.10;88.60;;;;;;5010455;28;20512;-76
2022/02/16 12:38:52;;;;;;;10.75;3.75;;;13.10;88.40;;;;;;5010745;28;20030;-79
2022/02/16 12:41:19;;;;;;;9.13;3.42;;;13.20;88.30;;;;;;5008530;28;20040;-76
2022/02/16 12:43:53;;;;;;;7.05;2.78;;;13.10;88.10;;;;;;5010038;28;20459;-77
2022/02/16 12:46:19;;;;;;;5.82;2.97;;;13.10;88.10;;;;;;5009649;28;20049;-76
2022/02/16 12:48:48;;;;;;;8.20;2.70;;;13.20;88.00;;;;;;5017473;28;20030;-79
2022/02/16 12:51:31;;;;;;;10.55;3.00;;;13.20;88.00;;;;;;5008810;28;20380;-78
2022/02/16 12:54:10;;;;;;;12.35;3.55;;;13.20;87.90;;;;;;5018116;28;20030;-79